Montfort, WI (53569)

9:39 AM CDT on August 17, 2017 (GMT -0500)
Rural Livingston | | Change Station

Elev 1142 ft 42.93 °N, 90.41 °W | Updated 29 seconds ago

Overcast
Overcast
66.5 °F
Feels Like 66.5 °F
N
8.0
Wind Variable Wind from SSW

Today
High -- | Low -- °F
--% Chance of Precip.
Yesterday
High -- | Low -- °F
Precip. -- in
Pressure 29.71 in
Visibility 10.0 miles
Clouds Mostly Cloudy 1300 ft
Overcast 1900 ft
Dew Point 65 °F
Humidity 95%
Rainfall 0.00 in
Snow Depth Not available.
6:10 AM 8:00 PM
Waning Crescent, 22% visible
METAR KMRJ 171415Z AUTO 23010G20KT 10SM BKN013 OVC019 21/20 A2971 RMK AO2
Pressure 29.71 in
Visibility 10.0 miles
Clouds Mostly Cloudy 1300 ft
Overcast 1900 ft
Dew Point 65 °F
Humidity 95%
Rainfall 0.00 in
Snow Depth Not available.
6:10 AM 8:00 PM
Waning Crescent, 22% visible
METAR KMRJ 171415Z AUTO 23010G20KT 10SM BKN013 OVC019 21/20 A2971 RMK AO2

Get Severe Weather Alerts

Thanks for signing up!

Be on the lookout for a verification email in your inbox.

You'll start receiving the daily forecast at 6 AM.

×

10-Day Weather Forecast

Almanac

Astronomy

Aug. 17, 2017 Rise Set
Actual Time
Civil Twilight
Nautical Twilight
Astronomical Twilight
Moon
Length of Visible Light
Length of Day
Tomorrow will be .
, % of the Moon is Illuminated

Today's Extremes

State Highs State Lows

Community

WunderPhotos

Category 6

Welcome to Category 6. This is the collective home for Weather Underground's featured writeups by Dr. Jeff Masters (right), Bob Henson (left), Chris Burt, and other regular contributors.

Nearby

Air Quality

  Air Quality AQ Index Pollutant
Not available.

Snow Depth

Station Depth Elevation

Earthquake Activity

City Distance Mag. Time & Date
Minimum magnitude displayed is 2.5.

Coastal Water Temperatures

Place Temperature

Stations

Nearby Weather Stations

Station Location Temp. Windchill Dew Point Humidity Wind Precip. Elev Updated Type
                   

Watches & Warnings

There are currently no watches in effect.